Terminal Aerodrome Forecast
Issued by NWS

Home | Current Version | Previous Version | Text Only | Print | Product List | Glossary On
Versions: 1 2 3 4 5 6 7 8 9 10 11 12 13 14 15 16 17 18 19 20
464
FTAK31 PAJN 291142
TAFAKT
TAF
PAKT 291142Z 2912/3012 15010KT 6SM -SHRA BKN015 OVC025
      WS020/15040KT
      TEMPO 2912/2916 14010G20KT 5SM SHRA BR BKN007 OVC015
     FM291800 14015G25KT 6SM -SHRA BR BKN025 OVC035
     FM292200 15015G25KT 5SM -SHRA BR BKN020 OVC030 WS015/15045KT
     FM300500 15015G25KT 4SM SHRA BR BKN015 OVC025 WS015/17045KT
      AMD LTD TO CLD VIS AND WIND 2912/2915=

USA.gov is the U.S. government's official web portal to all federal, state and local government web resources and services.